Аэропорт: Домодедово. Москва

ICAO: UUDD

METAR:
2024-04-22 22:30:00
UUDD 222230Z 26005G10MPS 9999 BKN029 08/02 Q1018 R32L/CLRD60 NOSIG
TAF:
2024-04-22 19:54:00
TAF UUDD 221954Z 2221/2403 24006MPS 9999 FEW008 BKN016 TX14/2311Z TN04/2301Z 
  TEMPO 2308/2315 24008G13MPS 
  BECMG 2316/2318 30003MPS